sensor_id;sensor_type;location;lat;lon;timestamp;pressure;altitude;pressure_sealevel;temperature
15626;BMP180;7912;51.376;6.126;2023-10-19T00:01:17;99070.00;;;15.70
15626;BMP180;7912;51.376;6.126;2023-10-19T00:03:45;99061.00;;;15.70
15626;BMP180;7912;51.376;6.126;2023-10-19T00:06:13;99071.00;;;15.70
15626;BMP180;7912;51.376;6.126;2023-10-19T00:08:41;99064.00;;;15.70
15626;BMP180;7912;51.376;6.126;2023-10-19T00:11:10;99057.00;;;15.80
15626;BMP180;7912;51.376;6.126;2023-10-19T00:13:39;99058.00;;;15.70
15626;BMP180;7912;51.376;6.126;2023-10-19T00:16:10;99044.00;;;15.70
15626;BMP180;7912;51.376;6.126;2023-10-19T00:18:50;99049.00;;;15.80
15626;BMP180;7912;51.376;6.126;2023-10-19T00:21:19;99058.00;;;15.70
15626;BMP180;7912;51.376;6.126;2023-10-19T00:23:56;99062.00;;;15.80
15626;BMP180;7912;51.376;6.126;2023-10-19T00:26:26;99060.00;;;15.80
15626;BMP180;7912;51.376;6.126;2023-10-19T00:28:56;99051.00;;;15.80
15626;BMP180;7912;51.376;6.126;2023-10-19T00:31:28;99052.00;;;15.80
15626;BMP180;7912;51.376;6.126;2023-10-19T00:33:55;99044.00;;;15.80
15626;BMP180;7912;51.376;6.126;2023-10-19T00:36:24;99044.00;;;15.80
15626;BMP180;7912;51.376;6.126;2023-10-19T00:38:52;99037.00;;;15.80
15626;BMP180;7912;51.376;6.126;2023-10-19T00:41:24;99040.00;;;15.80
15626;BMP180;7912;51.376;6.126;2023-10-19T00:43:59;99042.00;;;15.80
15626;BMP180;7912;51.376;6.126;2023-10-19T00:46:39;99033.00;;;15.80
15626;BMP180;7912;51.376;6.126;2023-10-19T00:49:11;99052.00;;;15.80
15626;BMP180;7912;51.376;6.126;2023-10-19T00:51:47;99030.00;;;15.80
15626;BMP180;7912;51.376;6.126;2023-10-19T00:54:29;99047.00;;;15.80
15626;BMP180;7912;51.376;6.126;2023-10-19T00:57:02;99026.00;;;15.90
15626;BMP180;7912;51.376;6.126;2023-10-19T00:59:41;99038.00;;;15.90
15626;BMP180;7912;51.376;6.126;2023-10-19T01:02:16;99036.00;;;15.90
15626;BMP180;7912;51.376;6.126;2023-10-19T01:04:47;99044.00;;;16.00
15626;BMP180;7912;51.376;6.126;2023-10-19T01:07:34;99041.00;;;16.00
15626;BMP180;7912;51.376;6.126;2023-10-19T01:10:07;99029.00;;;16.10
15626;BMP180;7912;51.376;6.126;2023-10-19T01:12:55;99043.00;;;16.10
15626;BMP180;7912;51.376;6.126;2023-10-19T01:15:26;99039.00;;;16.10
15626;BMP180;7912;51.376;6.126;2023-10-19T01:17:58;99041.00;;;16.10
15626;BMP180;7912;51.376;6.126;2023-10-19T01:20:30;99022.00;;;16.20
15626;BMP180;7912;51.376;6.126;2023-10-19T01:22:59;99038.00;;;16.20
15626;BMP180;7912;51.376;6.126;2023-10-19T01:25:59;99029.00;;;16.20
15626;BMP180;7912;51.376;6.126;2023-10-19T01:28:37;99031.00;;;16.20
15626;BMP180;7912;51.376;6.126;2023-10-19T01:31:12;99023.00;;;16.20
15626;BMP180;7912;51.376;6.126;2023-10-19T01:34:00;99028.00;;;16.30
15626;BMP180;7912;51.376;6.126;2023-10-19T01:36:34;99022.00;;;16.30
15626;BMP180;7912;51.376;6.126;2023-10-19T01:39:09;99024.00;;;16.40
15626;BMP180;7912;51.376;6.126;2023-10-19T01:41:39;99030.00;;;16.40
15626;BMP180;7912;51.376;6.126;2023-10-19T01:44:08;99020.00;;;16.40
15626;BMP180;7912;51.376;6.126;2023-10-19T01:46:42;99018.00;;;16.50
15626;BMP180;7912;51.376;6.126;2023-10-19T01:49:13;99024.00;;;16.50
15626;BMP180;7912;51.376;6.126;2023-10-19T01:51:40;99025.00;;;16.50
15626;BMP180;7912;51.376;6.126;2023-10-19T01:54:10;99013.00;;;16.60
15626;BMP180;7912;51.376;6.126;2023-10-19T01:56:38;99001.00;;;16.60
15626;BMP180;7912;51.376;6.126;2023-10-19T01:59:09;98993.00;;;16.60
15626;BMP180;7912;51.376;6.126;2023-10-19T02:01:37;98994.00;;;16.70
15626;BMP180;7912;51.376;6.126;2023-10-19T02:04:06;98990.00;;;16.70
15626;BMP180;7912;51.376;6.126;2023-10-19T02:06:36;99003.00;;;16.80
15626;BMP180;7912;51.376;6.126;2023-10-19T02:09:09;99004.00;;;16.80
15626;BMP180;7912;51.376;6.126;2023-10-19T02:11:46;98991.00;;;16.80
15626;BMP180;7912;51.376;6.126;2023-10-19T02:14:19;99005.00;;;16.90
15626;BMP180;7912;51.376;6.126;2023-10-19T02:16:53;98997.00;;;16.90
15626;BMP180;7912;51.376;6.126;2023-10-19T02:19:22;99000.00;;;16.90
15626;BMP180;7912;51.376;6.126;2023-10-19T02:22:02;99005.00;;;17.00
15626;BMP180;7912;51.376;6.126;2023-10-19T02:24:36;99004.00;;;17.00
15626;BMP180;7912;51.376;6.126;2023-10-19T02:27:03;99005.00;;;17.10
15626;BMP180;7912;51.376;6.126;2023-10-19T02:29:33;99003.00;;;17.10
15626;BMP180;7912;51.376;6.126;2023-10-19T02:32:03;98990.00;;;17.10
15626;BMP180;7912;51.376;6.126;2023-10-19T02:34:31;98980.00;;;17.20
15626;BMP180;7912;51.376;6.126;2023-10-19T02:36:59;98988.00;;;17.20
15626;BMP180;7912;51.376;6.126;2023-10-19T02:39:27;98992.00;;;17.20
15626;BMP180;7912;51.376;6.126;2023-10-19T02:41:55;98990.00;;;17.20
15626;BMP180;7912;51.376;6.126;2023-10-19T02:44:23;98972.00;;;17.20
15626;BMP180;7912;51.376;6.126;2023-10-19T02:46:56;98977.00;;;17.20
15626;BMP180;7912;51.376;6.126;2023-10-19T02:49:28;98981.00;;;17.30
15626;BMP180;7912;51.376;6.126;2023-10-19T02:51:57;98983.00;;;17.30
15626;BMP180;7912;51.376;6.126;2023-10-19T02:54:31;98986.00;;;17.40
15626;BMP180;7912;51.376;6.126;2023-10-19T02:57:00;98973.00;;;17.40
15626;BMP180;7912;51.376;6.126;2023-10-19T02:59:29;98969.00;;;17.40
15626;BMP180;7912;51.376;6.126;2023-10-19T03:01:59;98980.00;;;17.50
15626;BMP180;7912;51.376;6.126;2023-10-19T03:04:45;98975.00;;;17.50
15626;BMP180;7912;51.376;6.126;2023-10-19T03:07:13;98972.00;;;17.50
15626;BMP180;7912;51.376;6.126;2023-10-19T03:09:42;98969.00;;;17.60
15626;BMP180;7912;51.376;6.126;2023-10-19T03:12:20;98963.00;;;17.60
15626;BMP180;7912;51.376;6.126;2023-10-19T03:14:47;98967.00;;;17.70
15626;BMP180;7912;51.376;6.126;2023-10-19T03:17:16;98969.00;;;17.70
15626;BMP180;7912;51.376;6.126;2023-10-19T03:19:44;98971.00;;;17.80
15626;BMP180;7912;51.376;6.126;2023-10-19T03:22:11;98967.00;;;17.90
15626;BMP180;7912;51.376;6.126;2023-10-19T03:24:39;98967.00;;;17.90
15626;BMP180;7912;51.376;6.126;2023-10-19T03:27:14;98965.00;;;18.00
15626;BMP180;7912;51.376;6.126;2023-10-19T03:29:52;98962.00;;;18.00
15626;BMP180;7912;51.376;6.126;2023-10-19T03:32:25;98958.00;;;18.10
15626;BMP180;7912;51.376;6.126;2023-10-19T03:35:01;98966.00;;;18.10
15626;BMP180;7912;51.376;6.126;2023-10-19T03:37:32;98956.00;;;18.20
15626;BMP180;7912;51.376;6.126;2023-10-19T03:40:02;98952.00;;;18.20
15626;BMP180;7912;51.376;6.126;2023-10-19T03:42:34;98957.00;;;18.30
15626;BMP180;7912;51.376;6.126;2023-10-19T03:45:08;98943.00;;;18.30
15626;BMP180;7912;51.376;6.126;2023-10-19T03:47:41;98932.00;;;18.30
15626;BMP180;7912;51.376;6.126;2023-10-19T03:50:11;98938.00;;;18.40
15626;BMP180;7912;51.376;6.126;2023-10-19T03:52:47;98934.00;;;18.40
15626;BMP180;7912;51.376;6.126;2023-10-19T03:55:15;98937.00;;;18.40
15626;BMP180;7912;51.376;6.126;2023-10-19T03:57:46;98933.00;;;18.50
15626;BMP180;7912;51.376;6.126;2023-10-19T04:00:22;98935.00;;;18.50
15626;BMP180;7912;51.376;6.126;2023-10-19T04:02:54;98929.00;;;18.50
15626;BMP180;7912;51.376;6.126;2023-10-19T04:05:23;98921.00;;;18.50
15626;BMP180;7912;51.376;6.126;2023-10-19T04:07:50;98932.00;;;18.50
15626;BMP180;7912;51.376;6.126;2023-10-19T04:10:22;98919.00;;;18.50
15626;BMP180;7912;51.376;6.126;2023-10-19T04:13:02;98921.00;;;18.60
15626;BMP180;7912;51.376;6.126;2023-10-19T04:15:30;98939.00;;;18.60
15626;BMP180;7912;51.376;6.126;2023-10-19T04:18:05;98931.00;;;18.60
15626;BMP180;7912;51.376;6.126;2023-10-19T04:20:42;98933.00;;;18.60
15626;BMP180;7912;51.376;6.126;2023-10-19T04:23:23;98922.00;;;18.60
15626;BMP180;7912;51.376;6.126;2023-10-19T04:26:03;98940.00;;;18.60
15626;BMP180;7912;51.376;6.126;2023-10-19T04:28:41;98939.00;;;18.60
15626;BMP180;7912;51.376;6.126;2023-10-19T04:31:12;98937.00;;;18.60
15626;BMP180;7912;51.376;6.126;2023-10-19T04:33:44;98941.00;;;18.60
15626;BMP180;7912;51.376;6.126;2023-10-19T04:36:15;98938.00;;;18.60
15626;BMP180;7912;51.376;6.126;2023-10-19T04:38:43;98934.00;;;18.60
15626;BMP180;7912;51.376;6.126;2023-10-19T04:41:11;98937.00;;;18.70
15626;BMP180;7912;51.376;6.126;2023-10-19T04:43:39;98930.00;;;18.70
15626;BMP180;7912;51.376;6.126;2023-10-19T04:46:09;98937.00;;;18.70
15626;BMP180;7912;51.376;6.126;2023-10-19T04:48:40;98933.00;;;18.70
15626;BMP180;7912;51.376;6.126;2023-10-19T04:51:08;98928.00;;;18.70
15626;BMP180;7912;51.376;6.126;2023-10-19T04:53:39;98934.00;;;18.70
15626;BMP180;7912;51.376;6.126;2023-10-19T04:56:07;98936.00;;;18.80
15626;BMP180;7912;51.376;6.126;2023-10-19T04:58:39;98932.00;;;18.80
15626;BMP180;7912;51.376;6.126;2023-10-19T05:01:07;98939.00;;;18.70
15626;BMP180;7912;51.376;6.126;2023-10-19T05:03:34;98936.00;;;18.80
15626;BMP180;7912;51.376;6.126;2023-10-19T05:06:02;98942.00;;;18.80
15626;BMP180;7912;51.376;6.126;2023-10-19T05:08:30;98944.00;;;18.80
15626;BMP180;7912;51.376;6.126;2023-10-19T05:11:00;98948.00;;;18.80
15626;BMP180;7912;51.376;6.126;2023-10-19T05:13:30;98948.00;;;18.80
15626;BMP180;7912;51.376;6.126;2023-10-19T05:15:57;98952.00;;;18.80
15626;BMP180;7912;51.376;6.126;2023-10-19T05:18:26;98946.00;;;18.80
15626;BMP180;7912;51.376;6.126;2023-10-19T05:20:54;98951.00;;;18.80
15626;BMP180;7912;51.376;6.126;2023-10-19T05:23:25;98943.00;;;18.70
15626;BMP180;7912;51.376;6.126;2023-10-19T05:26:02;98949.00;;;18.70
15626;BMP180;7912;51.376;6.126;2023-10-19T05:28:30;98945.00;;;18.70
15626;BMP180;7912;51.376;6.126;2023-10-19T05:30:59;98947.00;;;18.60
15626;BMP180;7912;51.376;6.126;2023-10-19T05:33:32;98948.00;;;18.60
15626;BMP180;7912;51.376;6.126;2023-10-19T05:36:00;98944.00;;;18.60
15626;BMP180;7912;51.376;6.126;2023-10-19T05:38:28;98954.00;;;18.60
15626;BMP180;7912;51.376;6.126;2023-10-19T05:40:58;98939.00;;;18.60
15626;BMP180;7912;51.376;6.126;2023-10-19T05:43:26;98954.00;;;18.60
15626;BMP180;7912;51.376;6.126;2023-10-19T05:45:55;98953.00;;;18.60
15626;BMP180;7912;51.376;6.126;2023-10-19T05:48:24;98961.00;;;18.60
15626;BMP180;7912;51.376;6.126;2023-10-19T05:50:51;98956.00;;;18.50
15626;BMP180;7912;51.376;6.126;2023-10-19T05:53:18;98951.00;;;18.50
15626;BMP180;7912;51.376;6.126;2023-10-19T05:55:46;98954.00;;;18.50
15626;BMP180;7912;51.376;6.126;2023-10-19T05:58:13;98950.00;;;18.50
15626;BMP180;7912;51.376;6.126;2023-10-19T06:00:42;98944.00;;;18.50
15626;BMP180;7912;51.376;6.126;2023-10-19T06:03:09;98959.00;;;18.50
15626;BMP180;7912;51.376;6.126;2023-10-19T06:05:37;98954.00;;;18.50
15626;BMP180;7912;51.376;6.126;2023-10-19T06:08:04;98963.00;;;18.50
15626;BMP180;7912;51.376;6.126;2023-10-19T06:10:32;98967.00;;;18.50
15626;BMP180;7912;51.376;6.126;2023-10-19T06:12:59;98972.00;;;18.60
15626;BMP180;7912;51.376;6.126;2023-10-19T06:15:27;98969.00;;;18.60
15626;BMP180;7912;51.376;6.126;2023-10-19T06:17:56;98979.00;;;18.60
15626;BMP180;7912;51.376;6.126;2023-10-19T06:20:23;98976.00;;;18.60
15626;BMP180;7912;51.376;6.126;2023-10-19T06:22:52;98974.00;;;18.60
15626;BMP180;7912;51.376;6.126;2023-10-19T06:25:22;98983.00;;;18.70
15626;BMP180;7912;51.376;6.126;2023-10-19T06:27:52;98991.00;;;18.70
15626;BMP180;7912;51.376;6.126;2023-10-19T06:30:20;98984.00;;;18.70
15626;BMP180;7912;51.376;6.126;2023-10-19T06:32:56;98983.00;;;18.70
15626;BMP180;7912;51.376;6.126;2023-10-19T06:35:24;98984.00;;;18.70
15626;BMP180;7912;51.376;6.126;2023-10-19T06:37:54;98991.00;;;18.70
15626;BMP180;7912;51.376;6.126;2023-10-19T06:40:25;98980.00;;;18.70
15626;BMP180;7912;51.376;6.126;2023-10-19T06:42:57;98978.00;;;18.80
15626;BMP180;7912;51.376;6.126;2023-10-19T06:45:25;98986.00;;;18.80
15626;BMP180;7912;51.376;6.126;2023-10-19T06:47:53;98984.00;;;18.80
15626;BMP180;7912;51.376;6.126;2023-10-19T06:50:23;98988.00;;;18.80
15626;BMP180;7912;51.376;6.126;2023-10-19T06:52:52;98996.00;;;18.90
15626;BMP180;7912;51.376;6.126;2023-10-19T06:55:21;99005.00;;;19.00
15626;BMP180;7912;51.376;6.126;2023-10-19T06:57:54;98986.00;;;19.00
15626;BMP180;7912;51.376;6.126;2023-10-19T07:00:24;98992.00;;;19.10
15626;BMP180;7912;51.376;6.126;2023-10-19T07:02:56;98993.00;;;19.10
15626;BMP180;7912;51.376;6.126;2023-10-19T07:05:24;98991.00;;;19.20
15626;BMP180;7912;51.376;6.126;2023-10-19T07:07:53;98995.00;;;19.30
15626;BMP180;7912;51.376;6.126;2023-10-19T07:10:23;99001.00;;;19.30
15626;BMP180;7912;51.376;6.126;2023-10-19T07:12:55;99002.00;;;19.30
15626;BMP180;7912;51.376;6.126;2023-10-19T07:15:23;99003.00;;;19.40
15626;BMP180;7912;51.376;6.126;2023-10-19T07:17:53;99004.00;;;19.40
15626;BMP180;7912;51.376;6.126;2023-10-19T07:20:22;99002.00;;;19.50
15626;BMP180;7912;51.376;6.126;2023-10-19T07:23:02;99007.00;;;19.50
15626;BMP180;7912;51.376;6.126;2023-10-19T07:25:49;99004.00;;;19.60
15626;BMP180;7912;51.376;6.126;2023-10-19T07:28:27;99006.00;;;19.60
15626;BMP180;7912;51.376;6.126;2023-10-19T07:30:55;99003.00;;;19.60
15626;BMP180;7912;51.376;6.126;2023-10-19T07:33:23;98993.00;;;19.70
15626;BMP180;7912;51.376;6.126;2023-10-19T07:35:52;99001.00;;;19.70
15626;BMP180;7912;51.376;6.126;2023-10-19T07:38:23;98999.00;;;19.70
15626;BMP180;7912;51.376;6.126;2023-10-19T07:40:51;98997.00;;;19.80
15626;BMP180;7912;51.376;6.126;2023-10-19T07:43:22;99008.00;;;19.80
15626;BMP180;7912;51.376;6.126;2023-10-19T07:45:50;99007.00;;;19.90
15626;BMP180;7912;51.376;6.126;2023-10-19T07:48:19;98991.00;;;20.00
15626;BMP180;7912;51.376;6.126;2023-10-19T07:50:47;98984.00;;;20.00
15626;BMP180;7912;51.376;6.126;2023-10-19T07:53:15;98995.00;;;20.10
15626;BMP180;7912;51.376;6.126;2023-10-19T07:55:44;98981.00;;;20.20
15626;BMP180;7912;51.376;6.126;2023-10-19T07:58:12;98995.00;;;20.30
15626;BMP180;7912;51.376;6.126;2023-10-19T08:00:39;98992.00;;;20.30
15626;BMP180;7912;51.376;6.126;2023-10-19T08:03:10;98991.00;;;20.30
15626;BMP180;7912;51.376;6.126;2023-10-19T08:05:40;98981.00;;;20.40
15626;BMP180;7912;51.376;6.126;2023-10-19T08:08:08;98974.00;;;20.40
15626;BMP180;7912;51.376;6.126;2023-10-19T08:10:36;98965.00;;;20.40
15626;BMP180;7912;51.376;6.126;2023-10-19T08:13:04;98983.00;;;20.50
15626;BMP180;7912;51.376;6.126;2023-10-19T08:15:32;98971.00;;;20.50
15626;BMP180;7912;51.376;6.126;2023-10-19T08:17:59;98971.00;;;20.50
15626;BMP180;7912;51.376;6.126;2023-10-19T08:20:27;98970.00;;;20.60
15626;BMP180;7912;51.376;6.126;2023-10-19T08:23:04;98959.00;;;20.60
15626;BMP180;7912;51.376;6.126;2023-10-19T08:25:33;98963.00;;;20.70
15626;BMP180;7912;51.376;6.126;2023-10-19T08:28:21;98956.00;;;20.80
15626;BMP180;7912;51.376;6.126;2023-10-19T08:30:49;98950.00;;;20.90
15626;BMP180;7912;51.376;6.126;2023-10-19T08:33:29;98958.00;;;21.10
15626;BMP180;7912;51.376;6.126;2023-10-19T08:35:57;98946.00;;;21.10
15626;BMP180;7912;51.376;6.126;2023-10-19T08:38:25;98954.00;;;21.20
15626;BMP180;7912;51.376;6.126;2023-10-19T08:40:53;98949.00;;;21.30
15626;BMP180;7912;51.376;6.126;2023-10-19T08:43:23;98947.00;;;21.40
15626;BMP180;7912;51.376;6.126;2023-10-19T08:45:53;98951.00;;;21.40
15626;BMP180;7912;51.376;6.126;2023-10-19T08:48:21;98954.00;;;21.50
15626;BMP180;7912;51.376;6.126;2023-10-19T08:50:48;98948.00;;;21.60
15626;BMP180;7912;51.376;6.126;2023-10-19T08:53:20;98949.00;;;21.60
15626;BMP180;7912;51.376;6.126;2023-10-19T08:55:48;98949.00;;;21.70
15626;BMP180;7912;51.376;6.126;2023-10-19T08:58:18;98948.00;;;21.80
15626;BMP180;7912;51.376;6.126;2023-10-19T09:00:49;98949.00;;;21.90
15626;BMP180;7912;51.376;6.126;2023-10-19T09:03:26;98936.00;;;21.90
15626;BMP180;7912;51.376;6.126;2023-10-19T09:05:54;98945.00;;;21.90
15626;BMP180;7912;51.376;6.126;2023-10-19T09:08:24;98938.00;;;21.90
15626;BMP180;7912;51.376;6.126;2023-10-19T09:10:52;98940.00;;;21.90
15626;BMP180;7912;51.376;6.126;2023-10-19T09:13:22;98936.00;;;21.90
15626;BMP180;7912;51.376;6.126;2023-10-19T09:15:52;98933.00;;;21.80
15626;BMP180;7912;51.376;6.126;2023-10-19T09:18:25;98939.00;;;21.80
15626;BMP180;7912;51.376;6.126;2023-10-19T09:20:57;98928.00;;;21.80
15626;BMP180;7912;51.376;6.126;2023-10-19T09:23:38;98936.00;;;21.80
15626;BMP180;7912;51.376;6.126;2023-10-19T09:26:06;98928.00;;;21.70
15626;BMP180;7912;51.376;6.126;2023-10-19T09:28:36;98929.00;;;21.80
15626;BMP180;7912;51.376;6.126;2023-10-19T09:31:05;98941.00;;;21.80
15626;BMP180;7912;51.376;6.126;2023-10-19T09:33:41;98933.00;;;21.80
15626;BMP180;7912;51.376;6.126;2023-10-19T09:36:11;98923.00;;;21.90
15626;BMP180;7912;51.376;6.126;2023-10-19T09:38:50;98915.00;;;22.00
15626;BMP180;7912;51.376;6.126;2023-10-19T09:41:21;98922.00;;;22.10
15626;BMP180;7912;51.376;6.126;2023-10-19T09:43:50;98916.00;;;22.20
15626;BMP180;7912;51.376;6.126;2023-10-19T09:46:29;98932.00;;;22.40
15626;BMP180;7912;51.376;6.126;2023-10-19T09:48:59;98931.00;;;22.50
15626;BMP180;7912;51.376;6.126;2023-10-19T09:51:28;98917.00;;;22.70
15626;BMP180;7912;51.376;6.126;2023-10-19T09:54:31;98919.00;;;23.40
15626;BMP180;7912;51.376;6.126;2023-10-19T09:57:10;98912.00;;;24.00
15626;BMP180;7912;51.376;6.126;2023-10-19T09:59:51;98915.00;;;24.40
15626;BMP180;7912;51.376;6.126;2023-10-19T10:02:22;98912.00;;;24.60
15626;BMP180;7912;51.376;6.126;2023-10-19T10:04:53;98899.00;;;24.90
15626;BMP180;7912;51.376;6.126;2023-10-19T10:07:20;98905.00;;;25.10
15626;BMP180;7912;51.376;6.126;2023-10-19T10:10:08;98906.00;;;25.20
15626;BMP180;7912;51.376;6.126;2023-10-19T10:12:35;98904.00;;;25.20
15626;BMP180;7912;51.376;6.126;2023-10-19T10:15:05;98906.00;;;25.20
15626;BMP180;7912;51.376;6.126;2023-10-19T10:17:38;98906.00;;;25.10
15626;BMP180;7912;51.376;6.126;2023-10-19T10:22:41;98902.00;;;24.90
15626;BMP180;7912;51.376;6.126;2023-10-19T10:25:26;98905.00;;;24.90
15626;BMP180;7912;51.376;6.126;2023-10-19T10:27:57;98905.00;;;24.90
15626;BMP180;7912;51.376;6.126;2023-10-19T10:30:25;98897.00;;;24.90
15626;BMP180;7912;51.376;6.126;2023-10-19T10:32:53;98892.00;;;25.00
15626;BMP180;7912;51.376;6.126;2023-10-19T10:38:09;98901.00;;;25.40
15626;BMP180;7912;51.376;6.126;2023-10-19T10:40:48;98898.00;;;25.60
15626;BMP180;7912;51.376;6.126;2023-10-19T10:43:18;98895.00;;;25.80
15626;BMP180;7912;51.376;6.126;2023-10-19T10:45:46;98887.00;;;26.10
15626;BMP180;7912;51.376;6.126;2023-10-19T10:48:14;98881.00;;;26.70
15626;BMP180;7912;51.376;6.126;2023-10-19T10:50:42;98872.00;;;27.30
15626;BMP180;7912;51.376;6.126;2023-10-19T10:53:11;98870.00;;;28.00
15626;BMP180;7912;51.376;6.126;2023-10-19T10:55:39;98876.00;;;28.60
15626;BMP180;7912;51.376;6.126;2023-10-19T10:58:07;98880.00;;;29.00
15626;BMP180;7912;51.376;6.126;2023-10-19T11:00:42;98885.00;;;29.20
15626;BMP180;7912;51.376;6.126;2023-10-19T11:03:09;98884.00;;;29.40
15626;BMP180;7912;51.376;6.126;2023-10-19T11:05:37;98876.00;;;29.70
15626;BMP180;7912;51.376;6.126;2023-10-19T11:08:08;98877.00;;;30.20
15626;BMP180;7912;51.376;6.126;2023-10-19T11:10:45;98870.00;;;30.70
15626;BMP180;7912;51.376;6.126;2023-10-19T11:13:22;98877.00;;;30.90
15626;BMP180;7912;51.376;6.126;2023-10-19T11:15:55;98877.00;;;30.60
15626;BMP180;7912;51.376;6.126;2023-10-19T11:20:59;98865.00;;;29.60
15626;BMP180;7912;51.376;6.126;2023-10-19T11:23:42;98870.00;;;29.00
15626;BMP180;7912;51.376;6.126;2023-10-19T11:26:13;98860.00;;;28.60
15626;BMP180;7912;51.376;6.126;2023-10-19T11:28:41;98867.00;;;28.30
15626;BMP180;7912;51.376;6.126;2023-10-19T11:31:23;98870.00;;;27.90
15626;BMP180;7912;51.376;6.126;2023-10-19T11:33:53;98871.00;;;27.70
15626;BMP180;7912;51.376;6.126;2023-10-19T11:36:23;98854.00;;;27.50
15626;BMP180;7912;51.376;6.126;2023-10-19T11:38:53;98867.00;;;27.30
15626;BMP180;7912;51.376;6.126;2023-10-19T11:41:21;98856.00;;;27.20
15626;BMP180;7912;51.376;6.126;2023-10-19T11:43:49;98868.00;;;27.10
15626;BMP180;7912;51.376;6.126;2023-10-19T11:46:17;98871.00;;;27.00
15626;BMP180;7912;51.376;6.126;2023-10-19T11:48:52;98868.00;;;26.90
15626;BMP180;7912;51.376;6.126;2023-10-19T11:51:20;98879.00;;;26.70
15626;BMP180;7912;51.376;6.126;2023-10-19T11:53:47;98876.00;;;26.50
15626;BMP180;7912;51.376;6.126;2023-10-19T11:56:14;98870.00;;;26.20
15626;BMP180;7912;51.376;6.126;2023-10-19T11:58:43;98873.00;;;25.90
15626;BMP180;7912;51.376;6.126;2023-10-19T12:01:14;98870.00;;;25.60
15626;BMP180;7912;51.376;6.126;2023-10-19T12:03:45;98862.00;;;25.20
15626;BMP180;7912;51.376;6.126;2023-10-19T12:06:13;98863.00;;;25.00
15626;BMP180;7912;51.376;6.126;2023-10-19T12:08:47;98863.00;;;24.70
15626;BMP180;7912;51.376;6.126;2023-10-19T12:11:14;98858.00;;;24.50
15626;BMP180;7912;51.376;6.126;2023-10-19T12:13:43;98856.00;;;24.40
15626;BMP180;7912;51.376;6.126;2023-10-19T12:16:11;98850.00;;;24.20
15626;BMP180;7912;51.376;6.126;2023-10-19T12:18:47;98857.00;;;24.10
15626;BMP180;7912;51.376;6.126;2023-10-19T12:21:18;98856.00;;;24.00
15626;BMP180;7912;51.376;6.126;2023-10-19T12:23:46;98857.00;;;23.90
15626;BMP180;7912;51.376;6.126;2023-10-19T12:26:23;98862.00;;;23.80
15626;BMP180;7912;51.376;6.126;2023-10-19T12:28:50;98860.00;;;23.80
15626;BMP180;7912;51.376;6.126;2023-10-19T12:31:18;98854.00;;;23.70
15626;BMP180;7912;51.376;6.126;2023-10-19T12:33:46;98857.00;;;23.70
15626;BMP180;7912;51.376;6.126;2023-10-19T12:36:14;98851.00;;;23.70
15626;BMP180;7912;51.376;6.126;2023-10-19T12:38:47;98858.00;;;23.70
15626;BMP180;7912;51.376;6.126;2023-10-19T12:41:14;98852.00;;;23.70
15626;BMP180;7912;51.376;6.126;2023-10-19T12:43:44;98848.00;;;23.70
15626;BMP180;7912;51.376;6.126;2023-10-19T12:46:14;98837.00;;;23.70
15626;BMP180;7912;51.376;6.126;2023-10-19T12:48:43;98833.00;;;23.80
15626;BMP180;7912;51.376;6.126;2023-10-19T12:51:10;98842.00;;;23.80
15626;BMP180;7912;51.376;6.126;2023-10-19T12:53:41;98820.00;;;23.80
15626;BMP180;7912;51.376;6.126;2023-10-19T12:56:09;98822.00;;;23.80
15626;BMP180;7912;51.376;6.126;2023-10-19T12:58:38;98820.00;;;23.90
15626;BMP180;7912;51.376;6.126;2023-10-19T13:01:05;98826.00;;;23.90
15626;BMP180;7912;51.376;6.126;2023-10-19T13:03:35;98814.00;;;23.90
15626;BMP180;7912;51.376;6.126;2023-10-19T13:06:06;98812.00;;;23.90
15626;BMP180;7912;51.376;6.126;2023-10-19T13:08:34;98826.00;;;23.90
15626;BMP180;7912;51.376;6.126;2023-10-19T13:11:01;98815.00;;;23.90
15626;BMP180;7912;51.376;6.126;2023-10-19T13:13:42;98816.00;;;23.90
15626;BMP180;7912;51.376;6.126;2023-10-19T13:16:10;98820.00;;;23.90
15626;BMP180;7912;51.376;6.126;2023-10-19T13:18:38;98811.00;;;23.80
15626;BMP180;7912;51.376;6.126;2023-10-19T13:21:07;98813.00;;;23.80
15626;BMP180;7912;51.376;6.126;2023-10-19T13:23:38;98825.00;;;23.70
15626;BMP180;7912;51.376;6.126;2023-10-19T13:26:06;98818.00;;;23.60
15626;BMP180;7912;51.376;6.126;2023-10-19T13:28:34;98818.00;;;23.40
15626;BMP180;7912;51.376;6.126;2023-10-19T13:31:09;98814.00;;;23.30
15626;BMP180;7912;51.376;6.126;2023-10-19T13:33:37;98802.00;;;23.20
15626;BMP180;7912;51.376;6.126;2023-10-19T13:36:04;98795.00;;;23.00
15626;BMP180;7912;51.376;6.126;2023-10-19T13:38:33;98802.00;;;22.90
15626;BMP180;7912;51.376;6.126;2023-10-19T13:41:05;98801.00;;;22.90
15626;BMP180;7912;51.376;6.126;2023-10-19T13:43:40;98793.00;;;22.80
15626;BMP180;7912;51.376;6.126;2023-10-19T13:46:09;98787.00;;;22.80
15626;BMP180;7912;51.376;6.126;2023-10-19T13:48:37;98788.00;;;22.80
15626;BMP180;7912;51.376;6.126;2023-10-19T13:51:07;98795.00;;;22.70
15626;BMP180;7912;51.376;6.126;2023-10-19T13:53:42;98792.00;;;22.70
15626;BMP180;7912;51.376;6.126;2023-10-19T13:56:13;98787.00;;;22.60
15626;BMP180;7912;51.376;6.126;2023-10-19T13:58:42;98781.00;;;22.60
15626;BMP180;7912;51.376;6.126;2023-10-19T14:01:10;98775.00;;;22.50
15626;BMP180;7912;51.376;6.126;2023-10-19T14:03:41;98777.00;;;22.50
15626;BMP180;7912;51.376;6.126;2023-10-19T14:06:15;98785.00;;;22.40
15626;BMP180;7912;51.376;6.126;2023-10-19T14:08:43;98771.00;;;22.30
15626;BMP180;7912;51.376;6.126;2023-10-19T14:11:11;98791.00;;;22.30
15626;BMP180;7912;51.376;6.126;2023-10-19T14:13:39;98773.00;;;22.30
15626;BMP180;7912;51.376;6.126;2023-10-19T14:16:10;98769.00;;;22.20
15626;BMP180;7912;51.376;6.126;2023-10-19T14:18:38;98763.00;;;22.10
15626;BMP180;7912;51.376;6.126;2023-10-19T14:21:17;98765.00;;;22.10
15626;BMP180;7912;51.376;6.126;2023-10-19T14:23:46;98746.00;;;22.00
15626;BMP180;7912;51.376;6.126;2023-10-19T14:26:15;98745.00;;;22.00
15626;BMP180;7912;51.376;6.126;2023-10-19T14:28:42;98726.00;;;22.00
15626;BMP180;7912;51.376;6.126;2023-10-19T14:31:10;98725.00;;;22.00
15626;BMP180;7912;51.376;6.126;2023-10-19T14:33:39;98720.00;;;22.00
15626;BMP180;7912;51.376;6.126;2023-10-19T14:36:08;98717.00;;;22.00
15626;BMP180;7912;51.376;6.126;2023-10-19T14:38:36;98711.00;;;22.00
15626;BMP180;7912;51.376;6.126;2023-10-19T14:41:05;98702.00;;;22.00
15626;BMP180;7912;51.376;6.126;2023-10-19T14:43:33;98703.00;;;21.90
15626;BMP180;7912;51.376;6.126;2023-10-19T14:46:00;98696.00;;;21.90
15626;BMP180;7912;51.376;6.126;2023-10-19T14:48:28;98688.00;;;21.90
15626;BMP180;7912;51.376;6.126;2023-10-19T14:50:59;98674.00;;;21.90